sensor_id;sensor_type;location;lat;lon;timestamp;temperature;humidity
47765;DHT22;33529;49.242;8.670;2023-09-12T00:01:29;19.20;99.90
47765;DHT22;33529;49.242;8.670;2023-09-12T00:03:59;19.30;99.90
47765;DHT22;33529;49.242;8.670;2023-09-12T00:06:26;19.30;99.90
47765;DHT22;33529;49.242;8.670;2023-09-12T00:08:54;19.30;99.90
47765;DHT22;33529;49.242;8.670;2023-09-12T00:11:20;19.40;99.90
47765;DHT22;33529;49.242;8.670;2023-09-12T00:13:47;19.40;99.90
47765;DHT22;33529;49.242;8.670;2023-09-12T00:16:14;19.50;99.90
47765;DHT22;33529;49.242;8.670;2023-09-12T00:18:41;19.60;99.90
47765;DHT22;33529;49.242;8.670;2023-09-12T00:21:09;19.60;99.90
47765;DHT22;33529;49.242;8.670;2023-09-12T00:23:36;19.60;99.90
47765;DHT22;33529;49.242;8.670;2023-09-12T00:26:03;19.70;99.90
47765;DHT22;33529;49.242;8.670;2023-09-12T00:28:30;19.60;99.90
47765;DHT22;33529;49.242;8.670;2023-09-12T00:30:57;19.60;99.90
47765;DHT22;33529;49.242;8.670;2023-09-12T00:33:23;19.50;99.90
47765;DHT22;33529;49.242;8.670;2023-09-12T00:35:54;19.40;99.90
47765;DHT22;33529;49.242;8.670;2023-09-12T00:38:21;19.40;99.90
47765;DHT22;33529;49.242;8.670;2023-09-12T00:40:50;19.30;99.90
47765;DHT22;33529;49.242;8.670;2023-09-12T00:43:16;19.20;99.90
47765;DHT22;33529;49.242;8.670;2023-09-12T00:45:43;19.20;99.90
47765;DHT22;33529;49.242;8.670;2023-09-12T00:48:11;19.10;99.90
47765;DHT22;33529;49.242;8.670;2023-09-12T00:50:39;19.00;99.90
47765;DHT22;33529;49.242;8.670;2023-09-12T00:53:07;19.00;99.90
47765;DHT22;33529;49.242;8.670;2023-09-12T00:55:36;19.00;99.90
47765;DHT22;33529;49.242;8.670;2023-09-12T00:58:03;19.00;99.90
47765;DHT22;33529;49.242;8.670;2023-09-12T01:00:30;18.90;99.90
47765;DHT22;33529;49.242;8.670;2023-09-12T01:02:58;18.90;99.90
47765;DHT22;33529;49.242;8.670;2023-09-12T01:05:25;18.90;99.90
47765;DHT22;33529;49.242;8.670;2023-09-12T01:07:53;18.90;99.90
47765;DHT22;33529;49.242;8.670;2023-09-12T01:10:20;18.90;99.90
47765;DHT22;33529;49.242;8.670;2023-09-12T01:12:47;18.90;99.90
47765;DHT22;33529;49.242;8.670;2023-09-12T01:15:14;18.90;99.90
47765;DHT22;33529;49.242;8.670;2023-09-12T01:17:43;18.80;99.90
47765;DHT22;33529;49.242;8.670;2023-09-12T01:20:40;18.80;99.90
47765;DHT22;33529;49.242;8.670;2023-09-12T01:23:21;18.80;99.90
47765;DHT22;33529;49.242;8.670;2023-09-12T01:26:03;18.80;99.90
47765;DHT22;33529;49.242;8.670;2023-09-12T01:28:34;18.80;99.90
47765;DHT22;33529;49.242;8.670;2023-09-12T01:31:02;18.90;99.90
47765;DHT22;33529;49.242;8.670;2023-09-12T01:33:30;18.80;99.90
47765;DHT22;33529;49.242;8.670;2023-09-12T01:35:57;18.70;99.90
47765;DHT22;33529;49.242;8.670;2023-09-12T01:38:24;18.80;99.90
47765;DHT22;33529;49.242;8.670;2023-09-12T01:40:52;18.90;99.90
47765;DHT22;33529;49.242;8.670;2023-09-12T01:43:21;18.80;99.90
47765;DHT22;33529;49.242;8.670;2023-09-12T01:45:56;18.80;99.90
47765;DHT22;33529;49.242;8.670;2023-09-12T01:48:28;18.90;99.90
47765;DHT22;33529;49.242;8.670;2023-09-12T01:51:01;18.90;99.90
47765;DHT22;33529;49.242;8.670;2023-09-12T01:53:29;18.90;99.90
47765;DHT22;33529;49.242;8.670;2023-09-12T01:55:57;18.90;99.90
47765;DHT22;33529;49.242;8.670;2023-09-12T01:58:25;18.80;99.90
47765;DHT22;33529;49.242;8.670;2023-09-12T02:00:53;18.80;99.90
47765;DHT22;33529;49.242;8.670;2023-09-12T02:03:21;18.70;99.90
47765;DHT22;33529;49.242;8.670;2023-09-12T02:05:48;18.70;99.90
47765;DHT22;33529;49.242;8.670;2023-09-12T02:08:18;18.70;99.90
47765;DHT22;33529;49.242;8.670;2023-09-12T02:10:46;18.70;99.90
47765;DHT22;33529;49.242;8.670;2023-09-12T02:13:13;18.60;99.90
47765;DHT22;33529;49.242;8.670;2023-09-12T02:15:40;18.60;99.90
47765;DHT22;33529;49.242;8.670;2023-09-12T02:18:07;18.60;99.90
47765;DHT22;33529;49.242;8.670;2023-09-12T02:20:38;18.50;99.90
47765;DHT22;33529;49.242;8.670;2023-09-12T02:23:05;18.50;99.90
47765;DHT22;33529;49.242;8.670;2023-09-12T02:25:32;18.50;99.90
47765;DHT22;33529;49.242;8.670;2023-09-12T02:27:59;18.50;99.90
47765;DHT22;33529;49.242;8.670;2023-09-12T02:30:26;18.50;99.90
47765;DHT22;33529;49.242;8.670;2023-09-12T02:32:53;18.50;99.90
47765;DHT22;33529;49.242;8.670;2023-09-12T02:35:20;18.50;99.90
47765;DHT22;33529;49.242;8.670;2023-09-12T02:37:47;18.50;99.90
47765;DHT22;33529;49.242;8.670;2023-09-12T02:40:14;18.50;99.90
47765;DHT22;33529;49.242;8.670;2023-09-12T02:42:41;18.50;99.90
47765;DHT22;33529;49.242;8.670;2023-09-12T02:45:08;18.50;99.90
47765;DHT22;33529;49.242;8.670;2023-09-12T02:47:35;18.40;99.90
47765;DHT22;33529;49.242;8.670;2023-09-12T02:50:02;18.30;99.90
47765;DHT22;33529;49.242;8.670;2023-09-12T02:52:29;18.40;99.90
47765;DHT22;33529;49.242;8.670;2023-09-12T02:54:56;18.40;99.90
47765;DHT22;33529;49.242;8.670;2023-09-12T02:57:23;18.20;99.90
47765;DHT22;33529;49.242;8.670;2023-09-12T02:59:50;18.30;99.90
47765;DHT22;33529;49.242;8.670;2023-09-12T03:02:17;18.20;99.90
47765;DHT22;33529;49.242;8.670;2023-09-12T03:04:44;18.20;99.90
47765;DHT22;33529;49.242;8.670;2023-09-12T03:07:10;18.20;99.90
47765;DHT22;33529;49.242;8.670;2023-09-12T03:09:37;18.30;99.90
47765;DHT22;33529;49.242;8.670;2023-09-12T03:12:05;18.30;99.90
47765;DHT22;33529;49.242;8.670;2023-09-12T03:14:33;18.40;99.90
47765;DHT22;33529;49.242;8.670;2023-09-12T03:17:00;18.30;99.90
47765;DHT22;33529;49.242;8.670;2023-09-12T03:19:27;18.30;99.90
47765;DHT22;33529;49.242;8.670;2023-09-12T03:21:56;18.30;99.90
47765;DHT22;33529;49.242;8.670;2023-09-12T03:24:23;18.30;99.90
47765;DHT22;33529;49.242;8.670;2023-09-12T03:26:52;18.30;99.90
47765;DHT22;33529;49.242;8.670;2023-09-12T03:29:19;18.40;99.90
47765;DHT22;33529;49.242;8.670;2023-09-12T03:31:46;18.40;99.90
47765;DHT22;33529;49.242;8.670;2023-09-12T03:34:14;18.40;99.90
47765;DHT22;33529;49.242;8.670;2023-09-12T03:36:41;18.50;99.90
47765;DHT22;33529;49.242;8.670;2023-09-12T03:39:08;18.40;99.90
47765;DHT22;33529;49.242;8.670;2023-09-12T03:41:35;18.40;99.90
47765;DHT22;33529;49.242;8.670;2023-09-12T03:44:03;18.40;99.90
47765;DHT22;33529;49.242;8.670;2023-09-12T03:46:30;18.40;99.90
47765;DHT22;33529;49.242;8.670;2023-09-12T03:48:57;18.40;99.90
47765;DHT22;33529;49.242;8.670;2023-09-12T03:51:24;18.50;99.90
47765;DHT22;33529;49.242;8.670;2023-09-12T03:53:51;18.50;99.90
47765;DHT22;33529;49.242;8.670;2023-09-12T03:56:18;18.50;99.90
47765;DHT22;33529;49.242;8.670;2023-09-12T03:58:47;18.50;99.90
47765;DHT22;33529;49.242;8.670;2023-09-12T04:01:14;18.50;99.90
47765;DHT22;33529;49.242;8.670;2023-09-12T04:03:41;18.50;99.90
47765;DHT22;33529;49.242;8.670;2023-09-12T04:06:08;18.50;99.90
47765;DHT22;33529;49.242;8.670;2023-09-12T04:08:36;18.50;99.90
47765;DHT22;33529;49.242;8.670;2023-09-12T04:11:03;18.60;99.90
47765;DHT22;33529;49.242;8.670;2023-09-12T04:13:30;18.60;99.90
47765;DHT22;33529;49.242;8.670;2023-09-12T04:15:57;18.60;99.90
47765;DHT22;33529;49.242;8.670;2023-09-12T04:18:24;18.60;99.90
47765;DHT22;33529;49.242;8.670;2023-09-12T04:20:51;18.50;99.90
47765;DHT22;33529;49.242;8.670;2023-09-12T04:23:18;18.60;99.90
47765;DHT22;33529;49.242;8.670;2023-09-12T04:25:48;18.60;99.90
47765;DHT22;33529;49.242;8.670;2023-09-12T04:28:15;18.60;99.90
47765;DHT22;33529;49.242;8.670;2023-09-12T04:30:42;18.70;99.90
47765;DHT22;33529;49.242;8.670;2023-09-12T04:33:12;18.60;99.90
47765;DHT22;33529;49.242;8.670;2023-09-12T04:35:39;18.70;99.90
47765;DHT22;33529;49.242;8.670;2023-09-12T04:38:06;18.70;99.90
47765;DHT22;33529;49.242;8.670;2023-09-12T04:40:33;18.80;99.90
47765;DHT22;33529;49.242;8.670;2023-09-12T04:43:00;18.80;99.90
47765;DHT22;33529;49.242;8.670;2023-09-12T04:45:28;18.80;99.90
47765;DHT22;33529;49.242;8.670;2023-09-12T04:47:55;18.70;99.90
47765;DHT22;33529;49.242;8.670;2023-09-12T04:50:22;18.70;99.90
47765;DHT22;33529;49.242;8.670;2023-09-12T04:52:49;18.80;99.90
47765;DHT22;33529;49.242;8.670;2023-09-12T04:55:16;18.70;99.90
47765;DHT22;33529;49.242;8.670;2023-09-12T04:57:44;18.70;99.90
47765;DHT22;33529;49.242;8.670;2023-09-12T05:00:11;18.80;99.90
47765;DHT22;33529;49.242;8.670;2023-09-12T05:02:39;18.70;99.90
47765;DHT22;33529;49.242;8.670;2023-09-12T05:05:06;18.80;99.90
47765;DHT22;33529;49.242;8.670;2023-09-12T05:07:33;18.70;99.90
47765;DHT22;33529;49.242;8.670;2023-09-12T05:10:00;18.60;99.90
47765;DHT22;33529;49.242;8.670;2023-09-12T05:12:27;18.70;99.90
47765;DHT22;33529;49.242;8.670;2023-09-12T05:14:54;18.80;99.90
47765;DHT22;33529;49.242;8.670;2023-09-12T05:17:23;18.80;99.90
47765;DHT22;33529;49.242;8.670;2023-09-12T05:19:50;18.80;99.90
47765;DHT22;33529;49.242;8.670;2023-09-12T05:22:17;18.70;99.90
47765;DHT22;33529;49.242;8.670;2023-09-12T05:24:46;18.80;99.90
47765;DHT22;33529;49.242;8.670;2023-09-12T05:27:12;18.80;99.90
47765;DHT22;33529;49.242;8.670;2023-09-12T05:29:39;18.70;99.90
47765;DHT22;33529;49.242;8.670;2023-09-12T05:32:07;18.70;99.90
47765;DHT22;33529;49.242;8.670;2023-09-12T05:34:34;18.70;99.90
47765;DHT22;33529;49.242;8.670;2023-09-12T05:37:01;18.70;99.90
47765;DHT22;33529;49.242;8.670;2023-09-12T05:39:28;18.80;99.90
47765;DHT22;33529;49.242;8.670;2023-09-12T05:41:55;18.80;99.90
47765;DHT22;33529;49.242;8.670;2023-09-12T05:44:24;18.90;99.90
47765;DHT22;33529;49.242;8.670;2023-09-12T05:46:51;18.90;99.90
47765;DHT22;33529;49.242;8.670;2023-09-12T05:49:18;18.90;99.90
47765;DHT22;33529;49.242;8.670;2023-09-12T05:51:45;19.00;99.90
47765;DHT22;33529;49.242;8.670;2023-09-12T05:54:12;19.00;99.90
47765;DHT22;33529;49.242;8.670;2023-09-12T05:56:40;19.00;99.90
47765;DHT22;33529;49.242;8.670;2023-09-12T05:59:08;18.90;99.90
47765;DHT22;33529;49.242;8.670;2023-09-12T06:01:35;18.90;99.90
47765;DHT22;33529;49.242;8.670;2023-09-12T06:04:01;18.90;99.90
47765;DHT22;33529;49.242;8.670;2023-09-12T06:06:29;19.00;99.90
47765;DHT22;33529;49.242;8.670;2023-09-12T06:08:56;19.00;99.90
47765;DHT22;33529;49.242;8.670;2023-09-12T06:11:24;19.00;99.90
47765;DHT22;33529;49.242;8.670;2023-09-12T06:13:51;19.00;99.90
47765;DHT22;33529;49.242;8.670;2023-09-12T06:16:18;18.90;99.90
47765;DHT22;33529;49.242;8.670;2023-09-12T06:18:45;18.90;99.90
47765;DHT22;33529;49.242;8.670;2023-09-12T06:21:12;18.90;99.90
47765;DHT22;33529;49.242;8.670;2023-09-12T06:23:39;18.80;99.90
47765;DHT22;33529;49.242;8.670;2023-09-12T06:26:05;18.80;99.90
47765;DHT22;33529;49.242;8.670;2023-09-12T06:28:32;18.80;99.90
47765;DHT22;33529;49.242;8.670;2023-09-12T06:30:59;18.90;99.90
47765;DHT22;33529;49.242;8.670;2023-09-12T06:33:26;18.90;99.90
47765;DHT22;33529;49.242;8.670;2023-09-12T06:35:54;19.00;99.90
47765;DHT22;33529;49.242;8.670;2023-09-12T06:38:22;19.20;99.90
47765;DHT22;33529;49.242;8.670;2023-09-12T06:40:50;19.30;99.90
47765;DHT22;33529;49.242;8.670;2023-09-12T06:43:17;19.60;99.90
47765;DHT22;33529;49.242;8.670;2023-09-12T06:45:44;19.70;99.90
47765;DHT22;33529;49.242;8.670;2023-09-12T06:48:11;20.00;99.90
47765;DHT22;33529;49.242;8.670;2023-09-12T06:50:38;20.20;99.90
47765;DHT22;33529;49.242;8.670;2023-09-12T06:53:05;20.40;99.90
47765;DHT22;33529;49.242;8.670;2023-09-12T06:55:33;20.60;99.90
47765;DHT22;33529;49.242;8.670;2023-09-12T06:58:01;20.80;99.90
47765;DHT22;33529;49.242;8.670;2023-09-12T07:00:27;20.90;99.90
47765;DHT22;33529;49.242;8.670;2023-09-12T07:02:54;21.10;99.90
47765;DHT22;33529;49.242;8.670;2023-09-12T07:05:21;21.30;99.90
47765;DHT22;33529;49.242;8.670;2023-09-12T07:07:48;21.40;99.90
47765;DHT22;33529;49.242;8.670;2023-09-12T07:10:15;21.50;99.90
47765;DHT22;33529;49.242;8.670;2023-09-12T07:12:54;21.60;99.90
47765;DHT22;33529;49.242;8.670;2023-09-12T07:15:21;21.70;99.90
47765;DHT22;33529;49.242;8.670;2023-09-12T07:17:48;21.70;99.90
47765;DHT22;33529;49.242;8.670;2023-09-12T07:20:15;21.70;99.90
47765;DHT22;33529;49.242;8.670;2023-09-12T07:22:44;21.80;99.90
47765;DHT22;33529;49.242;8.670;2023-09-12T07:25:13;22.10;99.90
47765;DHT22;33529;49.242;8.670;2023-09-12T07:27:40;22.10;99.90
47765;DHT22;33529;49.242;8.670;2023-09-12T07:30:07;22.20;99.90
47765;DHT22;33529;49.242;8.670;2023-09-12T07:32:34;22.40;99.90
47765;DHT22;33529;49.242;8.670;2023-09-12T07:35:01;22.40;99.90
47765;DHT22;33529;49.242;8.670;2023-09-12T07:37:28;22.50;99.90
47765;DHT22;33529;49.242;8.670;2023-09-12T07:39:55;22.70;99.90
47765;DHT22;33529;49.242;8.670;2023-09-12T07:42:23;22.90;99.90
47765;DHT22;33529;49.242;8.670;2023-09-12T07:44:50;23.00;99.90
47765;DHT22;33529;49.242;8.670;2023-09-12T07:47:18;23.00;99.90
47765;DHT22;33529;49.242;8.670;2023-09-12T07:49:45;23.10;99.90
47765;DHT22;33529;49.242;8.670;2023-09-12T07:52:12;23.10;99.90
47765;DHT22;33529;49.242;8.670;2023-09-12T07:54:39;23.10;99.90
47765;DHT22;33529;49.242;8.670;2023-09-12T07:57:06;23.20;99.90
47765;DHT22;33529;49.242;8.670;2023-09-12T07:59:33;23.30;99.90
47765;DHT22;33529;49.242;8.670;2023-09-12T08:02:03;23.50;99.90
47765;DHT22;33529;49.242;8.670;2023-09-12T08:04:31;23.50;99.90
47765;DHT22;33529;49.242;8.670;2023-09-12T08:06:58;23.40;99.90
47765;DHT22;33529;49.242;8.670;2023-09-12T08:09:49;23.50;99.90
47765;DHT22;33529;49.242;8.670;2023-09-12T08:12:18;23.70;99.90
47765;DHT22;33529;49.242;8.670;2023-09-12T08:14:46;23.80;99.90
47765;DHT22;33529;49.242;8.670;2023-09-12T08:17:13;23.90;99.90
47765;DHT22;33529;49.242;8.670;2023-09-12T08:19:40;23.80;99.90
47765;DHT22;33529;49.242;8.670;2023-09-12T08:22:08;24.00;99.90
47765;DHT22;33529;49.242;8.670;2023-09-12T08:24:36;24.20;99.90
47765;DHT22;33529;49.242;8.670;2023-09-12T08:27:03;24.20;99.90
47765;DHT22;33529;49.242;8.670;2023-09-12T08:29:31;24.30;99.90
47765;DHT22;33529;49.242;8.670;2023-09-12T08:31:59;24.40;99.90
47765;DHT22;33529;49.242;8.670;2023-09-12T08:34:27;24.40;99.90
47765;DHT22;33529;49.242;8.670;2023-09-12T08:36:54;24.50;99.90
47765;DHT22;33529;49.242;8.670;2023-09-12T08:39:26;24.60;99.90
47765;DHT22;33529;49.242;8.670;2023-09-12T08:41:53;24.60;99.90
47765;DHT22;33529;49.242;8.670;2023-09-12T08:44:21;24.70;99.90
47765;DHT22;33529;49.242;8.670;2023-09-12T08:46:48;24.70;99.90
47765;DHT22;33529;49.242;8.670;2023-09-12T08:49:16;24.80;99.90
47765;DHT22;33529;49.242;8.670;2023-09-12T08:51:43;24.80;99.90
47765;DHT22;33529;49.242;8.670;2023-09-12T08:54:11;24.90;99.90
47765;DHT22;33529;49.242;8.670;2023-09-12T08:56:40;25.00;99.90
47765;DHT22;33529;49.242;8.670;2023-09-12T08:59:10;25.10;99.90
47765;DHT22;33529;49.242;8.670;2023-09-12T09:01:37;25.00;99.90
47765;DHT22;33529;49.242;8.670;2023-09-12T09:04:05;25.10;99.90
47765;DHT22;33529;49.242;8.670;2023-09-12T09:06:33;25.30;99.90
47765;DHT22;33529;49.242;8.670;2023-09-12T09:09:05;25.30;99.90
47765;DHT22;33529;49.242;8.670;2023-09-12T09:11:32;25.50;99.90
47765;DHT22;33529;49.242;8.670;2023-09-12T09:14:01;25.50;99.90
47765;DHT22;33529;49.242;8.670;2023-09-12T09:16:29;25.50;99.90
47765;DHT22;33529;49.242;8.670;2023-09-12T09:19:04;25.60;99.90
47765;DHT22;33529;49.242;8.670;2023-09-12T09:21:38;25.70;99.90
47765;DHT22;33529;49.242;8.670;2023-09-12T09:24:09;25.90;99.90
47765;DHT22;33529;49.242;8.670;2023-09-12T09:26:55;26.00;99.90
47765;DHT22;33529;49.242;8.670;2023-09-12T09:29:27;26.10;99.90
47765;DHT22;33529;49.242;8.670;2023-09-12T09:32:00;26.20;99.90
47765;DHT22;33529;49.242;8.670;2023-09-12T09:34:28;26.30;99.90
47765;DHT22;33529;49.242;8.670;2023-09-12T09:36:56;26.40;99.90
47765;DHT22;33529;49.242;8.670;2023-09-12T09:39:25;26.40;99.90
47765;DHT22;33529;49.242;8.670;2023-09-12T09:41:55;26.60;99.90
47765;DHT22;33529;49.242;8.670;2023-09-12T09:44:23;26.70;99.90
47765;DHT22;33529;49.242;8.670;2023-09-12T09:46:59;26.70;99.90
47765;DHT22;33529;49.242;8.670;2023-09-12T09:49:32;26.80;99.90
47765;DHT22;33529;49.242;8.670;2023-09-12T09:52:05;27.00;99.90
47765;DHT22;33529;49.242;8.670;2023-09-12T09:54:32;27.10;99.90
47765;DHT22;33529;49.242;8.670;2023-09-12T09:56:59;27.10;99.90
47765;DHT22;33529;49.242;8.670;2023-09-12T09:59:27;27.20;99.90
47765;DHT22;33529;49.242;8.670;2023-09-12T10:01:58;27.20;99.90
47765;DHT22;33529;49.242;8.670;2023-09-12T10:04:27;27.30;99.90
47765;DHT22;33529;49.242;8.670;2023-09-12T10:06:58;27.40;99.90
47765;DHT22;33529;49.242;8.670;2023-09-12T10:09:30;27.50;99.90
47765;DHT22;33529;49.242;8.670;2023-09-12T10:11:58;27.70;99.00
47765;DHT22;33529;49.242;8.670;2023-09-12T10:14:27;27.70;99.90
47765;DHT22;33529;49.242;8.670;2023-09-12T10:17:00;27.80;99.90
47765;DHT22;33529;49.242;8.670;2023-09-12T10:19:38;27.90;99.90
47765;DHT22;33529;49.242;8.670;2023-09-12T10:24:50;27.70;98.10
47765;DHT22;33529;49.242;8.670;2023-09-12T10:27:19;27.50;98.40
47765;DHT22;33529;49.242;8.670;2023-09-12T10:29:46;27.60;98.30
47765;DHT22;33529;49.242;8.670;2023-09-12T10:32:17;27.90;98.80
47765;DHT22;33529;49.242;8.670;2023-09-12T10:34:44;28.30;98.00
47765;DHT22;33529;49.242;8.670;2023-09-12T10:37:15;28.50;95.80
47765;DHT22;33529;49.242;8.670;2023-09-12T10:39:45;28.60;94.20
47765;DHT22;33529;49.242;8.670;2023-09-12T10:42:13;28.90;94.30
47765;DHT22;33529;49.242;8.670;2023-09-12T10:44:40;28.90;94.90
47765;DHT22;33529;49.242;8.670;2023-09-12T10:47:08;29.20;94.90
47765;DHT22;33529;49.242;8.670;2023-09-12T10:49:35;29.40;94.40
47765;DHT22;33529;49.242;8.670;2023-09-12T10:52:03;29.30;94.20
47765;DHT22;33529;49.242;8.670;2023-09-12T10:54:38;29.30;93.90
47765;DHT22;33529;49.242;8.670;2023-09-12T10:57:07;29.20;95.10
47765;DHT22;33529;49.242;8.670;2023-09-12T10:59:34;29.20;94.10
47765;DHT22;33529;49.242;8.670;2023-09-12T11:07:57;28.90;94.40
47765;DHT22;33529;49.242;8.670;2023-09-12T11:10:26;28.80;94.90
47765;DHT22;33529;49.242;8.670;2023-09-12T11:12:54;28.80;95.50
47765;DHT22;33529;49.242;8.670;2023-09-12T11:15:24;28.90;95.40
47765;DHT22;33529;49.242;8.670;2023-09-12T11:18:05;28.90;95.30
47765;DHT22;33529;49.242;8.670;2023-09-12T11:23:16;28.80;94.70
47765;DHT22;33529;49.242;8.670;2023-09-12T11:25:43;28.80;94.80
47765;DHT22;33529;49.242;8.670;2023-09-12T11:28:10;28.90;95.20
47765;DHT22;33529;49.242;8.670;2023-09-12T11:30:55;28.90;94.10
47765;DHT22;33529;49.242;8.670;2023-09-12T11:33:24;28.90;94.60
47765;DHT22;33529;49.242;8.670;2023-09-12T11:35:53;28.80;94.00
47765;DHT22;33529;49.242;8.670;2023-09-12T11:38:29;28.90;94.80
47765;DHT22;33529;49.242;8.670;2023-09-12T11:40:57;28.90;93.70
47765;DHT22;33529;49.242;8.670;2023-09-12T11:43:26;29.00;94.50
47765;DHT22;33529;49.242;8.670;2023-09-12T11:45:55;29.10;93.70
47765;DHT22;33529;49.242;8.670;2023-09-12T11:48:23;29.20;92.80
47765;DHT22;33529;49.242;8.670;2023-09-12T11:50:54;29.10;92.10
47765;DHT22;33529;49.242;8.670;2023-09-12T11:53:26;29.00;93.50
47765;DHT22;33529;49.242;8.670;2023-09-12T11:55:56;29.00;94.00
47765;DHT22;33529;49.242;8.670;2023-09-12T11:58:25;29.10;93.40
47765;DHT22;33529;49.242;8.670;2023-09-12T12:00:54;29.20;92.00
47765;DHT22;33529;49.242;8.670;2023-09-12T12:03:25;29.10;92.90
47765;DHT22;33529;49.242;8.670;2023-09-12T12:05:54;29.20;92.60
47765;DHT22;33529;49.242;8.670;2023-09-12T12:08:22;29.30;92.40
47765;DHT22;33529;49.242;8.670;2023-09-12T12:10:52;29.20;91.90
47765;DHT22;33529;49.242;8.670;2023-09-12T12:13:20;29.20;93.10
47765;DHT22;33529;49.242;8.670;2023-09-12T12:15:48;29.20;93.10
47765;DHT22;33529;49.242;8.670;2023-09-12T12:18:15;29.30;93.00
47765;DHT22;33529;49.242;8.670;2023-09-12T12:20:42;29.50;92.40
47765;DHT22;33529;49.242;8.670;2023-09-12T12:23:09;29.60;91.90
47765;DHT22;33529;49.242;8.670;2023-09-12T12:25:36;29.70;92.80
47765;DHT22;33529;49.242;8.670;2023-09-12T12:28:03;29.60;92.10
47765;DHT22;33529;49.242;8.670;2023-09-12T12:30:32;29.70;92.40
47765;DHT22;33529;49.242;8.670;2023-09-12T12:33:09;29.70;91.20
47765;DHT22;33529;49.242;8.670;2023-09-12T12:36:03;29.70;91.80
47765;DHT22;33529;49.242;8.670;2023-09-12T12:38:36;29.90;91.10
47765;DHT22;33529;49.242;8.670;2023-09-12T12:41:10;29.90;91.10
47765;DHT22;33529;49.242;8.670;2023-09-12T12:43:40;29.90;91.30
47765;DHT22;33529;49.242;8.670;2023-09-12T12:46:12;29.80;90.60
47765;DHT22;33529;49.242;8.670;2023-09-12T12:48:43;29.70;90.00
47765;DHT22;33529;49.242;8.670;2023-09-12T12:51:18;29.70;90.00
47765;DHT22;33529;49.242;8.670;2023-09-12T12:53:47;29.70;89.70
47765;DHT22;33529;49.242;8.670;2023-09-12T12:56:22;29.80;88.70
47765;DHT22;33529;49.242;8.670;2023-09-12T12:58:51;29.90;89.60
47765;DHT22;33529;49.242;8.670;2023-09-12T13:01:18;29.90;90.20
47765;DHT22;33529;49.242;8.670;2023-09-12T13:03:45;30.10;89.90
47765;DHT22;33529;49.242;8.670;2023-09-12T13:06:13;30.10;90.60
47765;DHT22;33529;49.242;8.670;2023-09-12T13:08:41;30.20;89.50
47765;DHT22;33529;49.242;8.670;2023-09-12T13:11:09;30.20;89.70
47765;DHT22;33529;49.242;8.670;2023-09-12T13:13:37;30.20;89.60
47765;DHT22;33529;49.242;8.670;2023-09-12T13:16:04;30.20;89.20
47765;DHT22;33529;49.242;8.670;2023-09-12T13:18:36;30.20;89.80
47765;DHT22;33529;49.242;8.670;2023-09-12T13:21:03;30.10;90.40
47765;DHT22;33529;49.242;8.670;2023-09-12T13:23:30;30.10;90.80
47765;DHT22;33529;49.242;8.670;2023-09-12T13:25:57;30.30;91.00
47765;DHT22;33529;49.242;8.670;2023-09-12T13:28:24;30.40;89.80
47765;DHT22;33529;49.242;8.670;2023-09-12T13:30:53;30.40;88.60
47765;DHT22;33529;49.242;8.670;2023-09-12T13:33:20;30.40;88.10
47765;DHT22;33529;49.242;8.670;2023-09-12T13:35:48;30.40;89.00
47765;DHT22;33529;49.242;8.670;2023-09-12T13:38:16;30.40;87.30
47765;DHT22;33529;49.242;8.670;2023-09-12T13:40:45;30.40;89.00
47765;DHT22;33529;49.242;8.670;2023-09-12T13:43:12;30.30;88.60
47765;DHT22;33529;49.242;8.670;2023-09-12T13:45:39;30.40;88.90
47765;DHT22;33529;49.242;8.670;2023-09-12T13:48:07;30.40;88.30
47765;DHT22;33529;49.242;8.670;2023-09-12T13:50:35;30.40;87.60
47765;DHT22;33529;49.242;8.670;2023-09-12T13:53:03;30.30;88.60
47765;DHT22;33529;49.242;8.670;2023-09-12T13:55:34;30.40;87.20
47765;DHT22;33529;49.242;8.670;2023-09-12T13:58:21;30.40;87.70
47765;DHT22;33529;49.242;8.670;2023-09-12T14:00:49;30.40;88.40
47765;DHT22;33529;49.242;8.670;2023-09-12T14:03:16;30.40;89.50
47765;DHT22;33529;49.242;8.670;2023-09-12T14:05:43;30.50;88.40
47765;DHT22;33529;49.242;8.670;2023-09-12T14:08:11;30.50;87.60
47765;DHT22;33529;49.242;8.670;2023-09-12T14:10:38;30.50;88.40
47765;DHT22;33529;49.242;8.670;2023-09-12T14:13:07;30.40;88.10
47765;DHT22;33529;49.242;8.670;2023-09-12T14:15:37;30.40;89.20
47765;DHT22;33529;49.242;8.670;2023-09-12T14:18:04;30.40;88.30
47765;DHT22;33529;49.242;8.670;2023-09-12T14:20:32;30.40;89.70
47765;DHT22;33529;49.242;8.670;2023-09-12T14:22:59;30.30;89.30
47765;DHT22;33529;49.242;8.670;2023-09-12T14:25:26;30.40;90.20
47765;DHT22;33529;49.242;8.670;2023-09-12T14:27:53;30.60;87.80
47765;DHT22;33529;49.242;8.670;2023-09-12T14:30:20;30.60;87.50
47765;DHT22;33529;49.242;8.670;2023-09-12T14:32:49;30.60;85.50
47765;DHT22;33529;49.242;8.670;2023-09-12T14:35:16;30.70;88.40
47765;DHT22;33529;49.242;8.670;2023-09-12T14:37:43;30.60;86.90
47765;DHT22;33529;49.242;8.670;2023-09-12T14:40:10;30.60;89.20
47765;DHT22;33529;49.242;8.670;2023-09-12T14:42:40;30.50;90.30
47765;DHT22;33529;49.242;8.670;2023-09-12T14:45:07;30.50;89.30
47765;DHT22;33529;49.242;8.670;2023-09-12T14:47:34;30.50;90.60
47765;DHT22;33529;49.242;8.670;2023-09-12T14:50:02;30.50;90.00
47765;DHT22;33529;49.242;8.670;2023-09-12T14:52:29;30.50;89.40
47765;DHT22;33529;49.242;8.670;2023-09-12T14:54:57;30.50;90.60
47765;DHT22;33529;49.242;8.670;2023-09-12T14:57:26;30.60;90.40
47765;DHT22;33529;49.242;8.670;2023-09-12T14:59:53;30.70;89.40
47765;DHT22;33529;49.242;8.670;2023-09-12T15:02:19;30.90;90.00
47765;DHT22;33529;49.242;8.670;2023-09-12T15:04:46;31.00;88.50
47765;DHT22;33529;49.242;8.670;2023-09-12T15:07:13;31.00;89.20
47765;DHT22;33529;49.242;8.670;2023-09-12T15:09:40;31.00;89.30
47765;DHT22;33529;49.242;8.670;2023-09-12T15:12:07;30.90;87.50
47765;DHT22;33529;49.242;8.670;2023-09-12T15:14:34;30.80;88.50
47765;DHT22;33529;49.242;8.670;2023-09-12T15:17:04;30.80;87.10
47765;DHT22;33529;49.242;8.670;2023-09-12T15:19:30;30.70;87.80
47765;DHT22;33529;49.242;8.670;2023-09-12T15:21:57;30.70;88.20
47765;DHT22;33529;49.242;8.670;2023-09-12T15:24:24;30.60;87.70
47765;DHT22;33529;49.242;8.670;2023-09-12T15:26:53;30.40;88.40
47765;DHT22;33529;49.242;8.670;2023-09-12T15:29:20;30.40;89.60
47765;DHT22;33529;49.242;8.670;2023-09-12T15:31:46;30.40;89.70
47765;DHT22;33529;49.242;8.670;2023-09-12T15:34:13;30.30;90.40
47765;DHT22;33529;49.242;8.670;2023-09-12T15:36:45;30.30;90.10
47765;DHT22;33529;49.242;8.670;2023-09-12T15:39:13;30.40;89.90
47765;DHT22;33529;49.242;8.670;2023-09-12T15:41:40;30.50;86.80
47765;DHT22;33529;49.242;8.670;2023-09-12T15:44:07;30.60;87.10
47765;DHT22;33529;49.242;8.670;2023-09-12T15:46:42;30.60;86.50
47765;DHT22;33529;49.242;8.670;2023-09-12T15:49:09;30.50;87.30